sensor_id;sensor_type;location;lat;lon;timestamp;P1;durP1;ratioP1;P2;durP2;ratioP2
71730;SDS011;65964;43.496;3.710;2023-09-30T00:01:44;7.28;;;3.30;;
71730;SDS011;65964;43.496;3.710;2023-09-30T00:04:10;8.48;;;3.20;;
71730;SDS011;65964;43.496;3.710;2023-09-30T00:06:36;8.38;;;3.30;;
71730;SDS011;65964;43.496;3.710;2023-09-30T00:09:02;7.55;;;3.33;;
71730;SDS011;65964;43.496;3.710;2023-09-30T00:11:30;6.90;;;3.75;;
71730;SDS011;65964;43.496;3.710;2023-09-30T00:13:56;6.68;;;3.30;;
71730;SDS011;65964;43.496;3.710;2023-09-30T00:16:23;6.97;;;3.20;;
71730;SDS011;65964;43.496;3.710;2023-09-30T00:18:49;6.28;;;3.22;;
71730;SDS011;65964;43.496;3.710;2023-09-30T00:21:15;6.03;;;3.20;;
71730;SDS011;65964;43.496;3.710;2023-09-30T00:23:42;7.28;;;3.25;;
71730;SDS011;65964;43.496;3.710;2023-09-30T00:26:08;8.15;;;3.20;;
71730;SDS011;65964;43.496;3.710;2023-09-30T00:28:34;8.32;;;3.60;;
71730;SDS011;65964;43.496;3.710;2023-09-30T00:31:00;6.63;;;3.50;;
71730;SDS011;65964;43.496;3.710;2023-09-30T00:33:26;6.43;;;3.90;;
71730;SDS011;65964;43.496;3.710;2023-09-30T00:35:52;7.43;;;3.42;;
71730;SDS011;65964;43.496;3.710;2023-09-30T00:38:18;8.05;;;3.70;;
71730;SDS011;65964;43.496;3.710;2023-09-30T00:40:48;6.75;;;3.40;;
71730;SDS011;65964;43.496;3.710;2023-09-30T00:43:17;8.25;;;3.70;;
71730;SDS011;65964;43.496;3.710;2023-09-30T00:45:44;7.65;;;3.40;;
71730;SDS011;65964;43.496;3.710;2023-09-30T00:48:10;8.32;;;3.60;;
71730;SDS011;65964;43.496;3.710;2023-09-30T00:50:36;7.30;;;3.42;;
71730;SDS011;65964;43.496;3.710;2023-09-30T00:53:02;5.45;;;3.22;;
71730;SDS011;65964;43.496;3.710;2023-09-30T00:55:29;6.63;;;3.67;;
71730;SDS011;65964;43.496;3.710;2023-09-30T00:57:56;6.18;;;3.28;;
71730;SDS011;65964;43.496;3.710;2023-09-30T01:00:22;6.18;;;3.50;;
71730;SDS011;65964;43.496;3.710;2023-09-30T01:02:50;6.32;;;3.60;;
71730;SDS011;65964;43.496;3.710;2023-09-30T01:05:18;6.70;;;3.50;;
71730;SDS011;65964;43.496;3.710;2023-09-30T01:07:44;7.28;;;3.25;;
71730;SDS011;65964;43.496;3.710;2023-09-30T01:10:10;7.15;;;3.42;;
71730;SDS011;65964;43.496;3.710;2023-09-30T01:12:36;6.97;;;3.40;;
71730;SDS011;65964;43.496;3.710;2023-09-30T01:15:02;7.93;;;3.42;;
71730;SDS011;65964;43.496;3.710;2023-09-30T01:17:30;6.47;;;2.97;;
71730;SDS011;65964;43.496;3.710;2023-09-30T01:19:57;5.70;;;2.78;;
71730;SDS011;65964;43.496;3.710;2023-09-30T01:22:26;7.30;;;3.00;;
71730;SDS011;65964;43.496;3.710;2023-09-30T01:24:55;5.90;;;2.88;;
71730;SDS011;65964;43.496;3.710;2023-09-30T01:27:21;6.32;;;3.20;;
71730;SDS011;65964;43.496;3.710;2023-09-30T01:29:47;6.97;;;3.10;;
71730;SDS011;65964;43.496;3.710;2023-09-30T01:32:14;6.07;;;2.97;;
71730;SDS011;65964;43.496;3.710;2023-09-30T01:34:40;6.68;;;3.08;;
71730;SDS011;65964;43.496;3.710;2023-09-30T01:37:06;6.78;;;3.30;;
71730;SDS011;65964;43.496;3.710;2023-09-30T01:39:32;7.93;;;3.38;;
71730;SDS011;65964;43.496;3.710;2023-09-30T01:41:59;5.20;;;2.95;;
71730;SDS011;65964;43.496;3.710;2023-09-30T01:44:25;13.82;;;3.80;;
71730;SDS011;65964;43.496;3.710;2023-09-30T01:46:51;7.53;;;3.00;;
71730;SDS011;65964;43.496;3.710;2023-09-30T01:49:17;7.22;;;3.13;;
71730;SDS011;65964;43.496;3.710;2023-09-30T01:51:43;7.95;;;3.38;;
71730;SDS011;65964;43.496;3.710;2023-09-30T01:54:10;6.05;;;2.90;;
71730;SDS011;65964;43.496;3.710;2023-09-30T01:56:37;6.68;;;3.10;;
71730;SDS011;65964;43.496;3.710;2023-09-30T01:59:03;6.60;;;3.13;;
71730;SDS011;65964;43.496;3.710;2023-09-30T02:01:29;8.85;;;3.60;;
71730;SDS011;65964;43.496;3.710;2023-09-30T02:03:56;6.75;;;2.83;;
71730;SDS011;65964;43.496;3.710;2023-09-30T02:06:22;5.50;;;2.90;;
71730;SDS011;65964;43.496;3.710;2023-09-30T02:08:48;7.40;;;3.03;;
71730;SDS011;65964;43.496;3.710;2023-09-30T02:11:14;7.82;;;3.10;;
71730;SDS011;65964;43.496;3.710;2023-09-30T02:13:41;7.82;;;3.08;;
71730;SDS011;65964;43.496;3.710;2023-09-30T02:16:12;7.10;;;3.10;;
71730;SDS011;65964;43.496;3.710;2023-09-30T02:18:38;7.13;;;2.95;;
71730;SDS011;65964;43.496;3.710;2023-09-30T02:21:06;7.93;;;3.00;;
71730;SDS011;65964;43.496;3.710;2023-09-30T02:23:33;7.05;;;3.20;;
71730;SDS011;65964;43.496;3.710;2023-09-30T02:26:00;5.88;;;2.88;;
71730;SDS011;65964;43.496;3.710;2023-09-30T02:28:26;6.75;;;2.97;;
71730;SDS011;65964;43.496;3.710;2023-09-30T02:30:52;6.55;;;2.70;;
71730;SDS011;65964;43.496;3.710;2023-09-30T02:33:18;7.43;;;2.97;;
71730;SDS011;65964;43.496;3.710;2023-09-30T02:35:44;6.50;;;3.13;;
71730;SDS011;65964;43.496;3.710;2023-09-30T02:38:11;6.72;;;3.15;;
71730;SDS011;65964;43.496;3.710;2023-09-30T02:40:37;8.43;;;3.22;;
71730;SDS011;65964;43.496;3.710;2023-09-30T02:43:05;7.90;;;3.20;;
71730;SDS011;65964;43.496;3.710;2023-09-30T02:45:31;5.97;;;3.10;;
71730;SDS011;65964;43.496;3.710;2023-09-30T02:47:57;6.55;;;2.80;;
71730;SDS011;65964;43.496;3.710;2023-09-30T02:50:23;7.30;;;3.35;;
71730;SDS011;65964;43.496;3.710;2023-09-30T02:52:49;8.63;;;3.42;;
71730;SDS011;65964;43.496;3.710;2023-09-30T02:55:15;6.53;;;3.22;;
71730;SDS011;65964;43.496;3.710;2023-09-30T02:57:41;7.28;;;3.05;;
71730;SDS011;65964;43.496;3.710;2023-09-30T03:00:08;7.50;;;3.30;;
71730;SDS011;65964;43.496;3.710;2023-09-30T03:02:54;6.55;;;3.17;;
71730;SDS011;65964;43.496;3.710;2023-09-30T03:05:21;6.93;;;3.50;;
71730;SDS011;65964;43.496;3.710;2023-09-30T03:07:47;9.90;;;3.30;;
71730;SDS011;65964;43.496;3.710;2023-09-30T03:10:15;7.15;;;3.28;;
71730;SDS011;65964;43.496;3.710;2023-09-30T03:12:58;9.82;;;3.35;;
71730;SDS011;65964;43.496;3.710;2023-09-30T03:15:27;6.43;;;2.92;;
71730;SDS011;65964;43.496;3.710;2023-09-30T03:17:55;8.15;;;3.30;;
71730;SDS011;65964;43.496;3.710;2023-09-30T03:20:21;7.75;;;3.08;;
71730;SDS011;65964;43.496;3.710;2023-09-30T03:22:50;8.43;;;4.10;;
71730;SDS011;65964;43.496;3.710;2023-09-30T03:25:16;7.88;;;3.70;;
71730;SDS011;65964;43.496;3.710;2023-09-30T03:27:43;7.90;;;3.83;;
71730;SDS011;65964;43.496;3.710;2023-09-30T03:30:11;6.28;;;3.30;;
71730;SDS011;65964;43.496;3.710;2023-09-30T03:32:37;7.57;;;3.40;;
71730;SDS011;65964;43.496;3.710;2023-09-30T03:35:06;8.88;;;4.13;;
71730;SDS011;65964;43.496;3.710;2023-09-30T03:37:35;11.57;;;3.67;;
71730;SDS011;65964;43.496;3.710;2023-09-30T03:40:02;8.05;;;3.60;;
71730;SDS011;65964;43.496;3.710;2023-09-30T03:42:37;9.75;;;3.60;;
71730;SDS011;65964;43.496;3.710;2023-09-30T03:45:04;7.88;;;3.60;;
71730;SDS011;65964;43.496;3.710;2023-09-30T03:47:32;6.88;;;3.30;;
71730;SDS011;65964;43.496;3.710;2023-09-30T03:49:58;6.43;;;3.17;;
71730;SDS011;65964;43.496;3.710;2023-09-30T03:52:24;7.07;;;3.20;;
71730;SDS011;65964;43.496;3.710;2023-09-30T03:54:51;6.82;;;3.03;;
71730;SDS011;65964;43.496;3.710;2023-09-30T03:57:18;8.23;;;4.07;;
71730;SDS011;65964;43.496;3.710;2023-09-30T03:59:44;8.73;;;4.82;;
71730;SDS011;65964;43.496;3.710;2023-09-30T04:02:14;9.75;;;4.40;;
71730;SDS011;65964;43.496;3.710;2023-09-30T04:04:40;6.13;;;3.25;;
71730;SDS011;65964;43.496;3.710;2023-09-30T04:07:06;8.18;;;4.00;;
71730;SDS011;65964;43.496;3.710;2023-09-30T04:09:35;8.43;;;3.83;;
71730;SDS011;65964;43.496;3.710;2023-09-30T04:12:01;10.68;;;3.90;;
71730;SDS011;65964;43.496;3.710;2023-09-30T04:14:27;8.35;;;3.80;;
71730;SDS011;65964;43.496;3.710;2023-09-30T04:16:53;6.97;;;3.50;;
71730;SDS011;65964;43.496;3.710;2023-09-30T04:19:19;7.72;;;4.00;;
71730;SDS011;65964;43.496;3.710;2023-09-30T04:21:46;8.57;;;3.70;;
71730;SDS011;65964;43.496;3.710;2023-09-30T04:24:12;7.35;;;3.60;;
71730;SDS011;65964;43.496;3.710;2023-09-30T04:26:38;7.65;;;3.40;;
71730;SDS011;65964;43.496;3.710;2023-09-30T04:29:06;6.20;;;3.63;;
71730;SDS011;65964;43.496;3.710;2023-09-30T04:31:35;10.40;;;4.28;;
71730;SDS011;65964;43.496;3.710;2023-09-30T04:34:02;8.35;;;3.53;;
71730;SDS011;65964;43.496;3.710;2023-09-30T04:36:29;9.65;;;3.60;;
71730;SDS011;65964;43.496;3.710;2023-09-30T04:38:55;7.00;;;3.05;;
71730;SDS011;65964;43.496;3.710;2023-09-30T04:41:22;6.95;;;3.45;;
71730;SDS011;65964;43.496;3.710;2023-09-30T04:43:50;9.55;;;3.55;;
71730;SDS011;65964;43.496;3.710;2023-09-30T04:46:17;7.43;;;3.25;;
71730;SDS011;65964;43.496;3.710;2023-09-30T04:48:45;6.82;;;3.40;;
71730;SDS011;65964;43.496;3.710;2023-09-30T04:51:13;8.30;;;3.35;;
71730;SDS011;65964;43.496;3.710;2023-09-30T04:53:43;7.82;;;3.35;;
71730;SDS011;65964;43.496;3.710;2023-09-30T04:56:11;6.53;;;3.08;;
71730;SDS011;65964;43.496;3.710;2023-09-30T04:58:37;8.18;;;3.33;;
71730;SDS011;65964;43.496;3.710;2023-09-30T05:01:03;8.85;;;3.40;;
71730;SDS011;65964;43.496;3.710;2023-09-30T05:03:29;8.40;;;3.70;;
71730;SDS011;65964;43.496;3.710;2023-09-30T05:05:55;7.38;;;3.40;;
71730;SDS011;65964;43.496;3.710;2023-09-30T05:08:23;8.35;;;3.70;;
71730;SDS011;65964;43.496;3.710;2023-09-30T05:10:49;6.63;;;3.53;;
71730;SDS011;65964;43.496;3.710;2023-09-30T05:13:15;10.25;;;4.10;;
71730;SDS011;65964;43.496;3.710;2023-09-30T05:15:42;10.35;;;3.90;;
71730;SDS011;65964;43.496;3.710;2023-09-30T05:18:08;10.32;;;3.85;;
71730;SDS011;65964;43.496;3.710;2023-09-30T05:20:34;6.78;;;3.20;;
71730;SDS011;65964;43.496;3.710;2023-09-30T05:23:01;9.73;;;3.70;;
71730;SDS011;65964;43.496;3.710;2023-09-30T05:25:28;8.75;;;3.28;;
71730;SDS011;65964;43.496;3.710;2023-09-30T05:27:54;6.82;;;3.50;;
71730;SDS011;65964;43.496;3.710;2023-09-30T05:30:20;9.00;;;3.83;;
71730;SDS011;65964;43.496;3.710;2023-09-30T05:32:46;8.75;;;3.58;;
71730;SDS011;65964;43.496;3.710;2023-09-30T05:35:12;8.30;;;3.58;;
71730;SDS011;65964;43.496;3.710;2023-09-30T05:37:41;7.13;;;3.50;;
71730;SDS011;65964;43.496;3.710;2023-09-30T05:40:08;7.43;;;3.20;;
71730;SDS011;65964;43.496;3.710;2023-09-30T05:42:48;9.38;;;3.35;;
71730;SDS011;65964;43.496;3.710;2023-09-30T05:45:15;12.15;;;3.50;;
71730;SDS011;65964;43.496;3.710;2023-09-30T05:47:41;9.05;;;3.35;;
71730;SDS011;65964;43.496;3.710;2023-09-30T05:50:07;9.88;;;3.47;;
71730;SDS011;65964;43.496;3.710;2023-09-30T05:52:34;10.35;;;4.07;;
71730;SDS011;65964;43.496;3.710;2023-09-30T05:55:01;9.35;;;3.63;;
71730;SDS011;65964;43.496;3.710;2023-09-30T05:57:27;9.70;;;4.10;;
71730;SDS011;65964;43.496;3.710;2023-09-30T05:59:54;13.43;;;4.50;;
71730;SDS011;65964;43.496;3.710;2023-09-30T06:02:20;14.15;;;4.10;;
71730;SDS011;65964;43.496;3.710;2023-09-30T06:04:46;11.45;;;4.10;;
71730;SDS011;65964;43.496;3.710;2023-09-30T06:07:12;15.73;;;4.57;;
71730;SDS011;65964;43.496;3.710;2023-09-30T06:09:38;13.63;;;4.10;;
71730;SDS011;65964;43.496;3.710;2023-09-30T06:12:04;11.73;;;4.03;;
71730;SDS011;65964;43.496;3.710;2023-09-30T06:14:31;11.75;;;4.32;;
71730;SDS011;65964;43.496;3.710;2023-09-30T06:16:57;10.35;;;4.10;;
71730;SDS011;65964;43.496;3.710;2023-09-30T06:19:24;12.80;;;4.28;;
71730;SDS011;65964;43.496;3.710;2023-09-30T06:21:50;14.38;;;5.20;;
71730;SDS011;65964;43.496;3.710;2023-09-30T06:24:16;12.05;;;4.10;;
71730;SDS011;65964;43.496;3.710;2023-09-30T06:26:44;15.65;;;4.30;;
71730;SDS011;65964;43.496;3.710;2023-09-30T06:29:10;9.95;;;3.70;;
71730;SDS011;65964;43.496;3.710;2023-09-30T06:31:37;8.68;;;3.78;;
71730;SDS011;65964;43.496;3.710;2023-09-30T06:34:03;11.18;;;4.18;;
71730;SDS011;65964;43.496;3.710;2023-09-30T06:36:29;12.32;;;4.35;;
71730;SDS011;65964;43.496;3.710;2023-09-30T06:38:55;11.13;;;4.13;;
71730;SDS011;65964;43.496;3.710;2023-09-30T06:41:21;9.35;;;4.28;;
71730;SDS011;65964;43.496;3.710;2023-09-30T06:43:48;9.80;;;4.22;;
71730;SDS011;65964;43.496;3.710;2023-09-30T06:46:16;16.23;;;5.18;;
71730;SDS011;65964;43.496;3.710;2023-09-30T06:48:42;10.45;;;5.38;;
71730;SDS011;65964;43.496;3.710;2023-09-30T06:51:13;17.55;;;5.68;;
71730;SDS011;65964;43.496;3.710;2023-09-30T06:53:42;18.02;;;5.03;;
71730;SDS011;65964;43.496;3.710;2023-09-30T06:56:08;10.65;;;4.30;;
71730;SDS011;65964;43.496;3.710;2023-09-30T06:58:35;11.77;;;4.65;;
71730;SDS011;65964;43.496;3.710;2023-09-30T07:01:01;11.82;;;4.60;;
71730;SDS011;65964;43.496;3.710;2023-09-30T07:03:27;11.95;;;4.47;;
71730;SDS011;65964;43.496;3.710;2023-09-30T07:05:53;9.38;;;4.00;;
71730;SDS011;65964;43.496;3.710;2023-09-30T07:08:19;9.98;;;4.50;;
71730;SDS011;65964;43.496;3.710;2023-09-30T07:10:46;11.60;;;4.97;;
71730;SDS011;65964;43.496;3.710;2023-09-30T07:13:15;9.45;;;4.53;;
71730;SDS011;65964;43.496;3.710;2023-09-30T07:15:41;12.68;;;4.93;;
71730;SDS011;65964;43.496;3.710;2023-09-30T07:18:07;17.08;;;8.90;;
71730;SDS011;65964;43.496;3.710;2023-09-30T07:20:33;22.85;;;11.23;;
71730;SDS011;65964;43.496;3.710;2023-09-30T07:22:59;19.42;;;10.40;;
71730;SDS011;65964;43.496;3.710;2023-09-30T07:25:26;18.88;;;10.45;;
71730;SDS011;65964;43.496;3.710;2023-09-30T07:27:52;22.45;;;9.55;;
71730;SDS011;65964;43.496;3.710;2023-09-30T07:30:18;15.40;;;7.90;;
71730;SDS011;65964;43.496;3.710;2023-09-30T07:32:44;14.82;;;7.03;;
71730;SDS011;65964;43.496;3.710;2023-09-30T07:35:13;13.90;;;6.90;;
71730;SDS011;65964;43.496;3.710;2023-09-30T07:37:40;14.38;;;7.25;;
71730;SDS011;65964;43.496;3.710;2023-09-30T07:40:07;12.00;;;6.30;;
71730;SDS011;65964;43.496;3.710;2023-09-30T07:42:33;12.73;;;6.15;;
71730;SDS011;65964;43.496;3.710;2023-09-30T07:45:00;13.40;;;6.47;;
71730;SDS011;65964;43.496;3.710;2023-09-30T07:47:26;15.00;;;6.40;;
71730;SDS011;65964;43.496;3.710;2023-09-30T07:49:52;10.55;;;6.03;;
71730;SDS011;65964;43.496;3.710;2023-09-30T07:52:18;14.52;;;5.80;;
71730;SDS011;65964;43.496;3.710;2023-09-30T07:54:44;15.75;;;6.70;;
71730;SDS011;65964;43.496;3.710;2023-09-30T07:57:10;14.30;;;6.25;;
71730;SDS011;65964;43.496;3.710;2023-09-30T07:59:36;11.18;;;6.22;;
71730;SDS011;65964;43.496;3.710;2023-09-30T08:02:02;10.38;;;5.03;;
71730;SDS011;65964;43.496;3.710;2023-09-30T08:04:29;10.13;;;5.55;;
71730;SDS011;65964;43.496;3.710;2023-09-30T08:06:56;13.70;;;6.07;;
71730;SDS011;65964;43.496;3.710;2023-09-30T08:09:22;12.05;;;5.80;;
71730;SDS011;65964;43.496;3.710;2023-09-30T08:11:49;10.02;;;5.05;;
71730;SDS011;65964;43.496;3.710;2023-09-30T08:14:15;11.50;;;4.95;;
71730;SDS011;65964;43.496;3.710;2023-09-30T08:16:41;10.82;;;5.63;;
71730;SDS011;65964;43.496;3.710;2023-09-30T08:19:08;11.38;;;5.35;;
71730;SDS011;65964;43.496;3.710;2023-09-30T08:21:34;8.90;;;5.00;;
71730;SDS011;65964;43.496;3.710;2023-09-30T08:24:01;8.55;;;4.68;;
71730;SDS011;65964;43.496;3.710;2023-09-30T08:26:27;8.38;;;4.30;;
71730;SDS011;65964;43.496;3.710;2023-09-30T08:28:53;6.60;;;3.88;;
71730;SDS011;65964;43.496;3.710;2023-09-30T08:31:19;7.07;;;4.20;;
71730;SDS011;65964;43.496;3.710;2023-09-30T08:33:46;8.68;;;4.43;;
71730;SDS011;65964;43.496;3.710;2023-09-30T08:36:12;8.52;;;4.50;;
71730;SDS011;65964;43.496;3.710;2023-09-30T08:38:39;8.65;;;4.22;;
71730;SDS011;65964;43.496;3.710;2023-09-30T08:41:05;7.32;;;3.88;;
71730;SDS011;65964;43.496;3.710;2023-09-30T08:43:36;8.57;;;4.15;;
71730;SDS011;65964;43.496;3.710;2023-09-30T08:46:03;8.48;;;4.03;;
71730;SDS011;65964;43.496;3.710;2023-09-30T08:48:30;10.27;;;4.22;;
71730;SDS011;65964;43.496;3.710;2023-09-30T08:50:58;6.65;;;3.35;;
71730;SDS011;65964;43.496;3.710;2023-09-30T08:53:24;9.85;;;3.80;;
71730;SDS011;65964;43.496;3.710;2023-09-30T08:55:54;6.30;;;3.40;;
71730;SDS011;65964;43.496;3.710;2023-09-30T08:58:23;7.47;;;4.10;;
71730;SDS011;65964;43.496;3.710;2023-09-30T09:00:50;7.93;;;3.92;;
71730;SDS011;65964;43.496;3.710;2023-09-30T09:03:18;5.72;;;3.40;;
71730;SDS011;65964;43.496;3.710;2023-09-30T09:05:44;6.43;;;3.60;;
71730;SDS011;65964;43.496;3.710;2023-09-30T09:08:11;8.15;;;3.72;;
71730;SDS011;65964;43.496;3.710;2023-09-30T09:10:46;7.35;;;3.85;;
71730;SDS011;65964;43.496;3.710;2023-09-30T09:13:19;7.05;;;4.10;;
71730;SDS011;65964;43.496;3.710;2023-09-30T09:15:45;8.32;;;4.72;;
71730;SDS011;65964;43.496;3.710;2023-09-30T09:18:11;6.75;;;3.60;;
71730;SDS011;65964;43.496;3.710;2023-09-30T09:20:39;6.88;;;3.35;;
71730;SDS011;65964;43.496;3.710;2023-09-30T09:23:06;6.10;;;3.42;;
71730;SDS011;65964;43.496;3.710;2023-09-30T09:25:38;8.50;;;3.55;;
71730;SDS011;65964;43.496;3.710;2023-09-30T09:28:04;6.80;;;3.35;;
71730;SDS011;65964;43.496;3.710;2023-09-30T09:30:30;6.47;;;3.47;;
71730;SDS011;65964;43.496;3.710;2023-09-30T09:35:25;6.43;;;3.55;;
71730;SDS011;65964;43.496;3.710;2023-09-30T09:37:57;8.20;;;4.15;;
71730;SDS011;65964;43.496;3.710;2023-09-30T09:40:25;7.57;;;3.60;;
71730;SDS011;65964;43.496;3.710;2023-09-30T09:42:51;7.07;;;3.58;;
71730;SDS011;65964;43.496;3.710;2023-09-30T09:45:20;9.13;;;3.55;;
71730;SDS011;65964;43.496;3.710;2023-09-30T09:47:48;6.65;;;3.55;;
71730;SDS011;65964;43.496;3.710;2023-09-30T09:50:14;7.30;;;3.20;;
71730;SDS011;65964;43.496;3.710;2023-09-30T09:52:41;8.32;;;3.38;;
71730;SDS011;65964;43.496;3.710;2023-09-30T09:55:10;6.97;;;3.30;;
71730;SDS011;65964;43.496;3.710;2023-09-30T09:57:36;6.85;;;3.30;;
71730;SDS011;65964;43.496;3.710;2023-09-30T10:00:03;7.40;;;3.53;;
71730;SDS011;65964;43.496;3.710;2023-09-30T10:02:36;6.68;;;3.13;;
71730;SDS011;65964;43.496;3.710;2023-09-30T10:05:05;8.38;;;4.13;;
71730;SDS011;65964;43.496;3.710;2023-09-30T10:07:33;6.25;;;3.15;;
71730;SDS011;65964;43.496;3.710;2023-09-30T10:10:01;8.35;;;3.58;;
71730;SDS011;65964;43.496;3.710;2023-09-30T10:12:35;8.27;;;3.60;;
71730;SDS011;65964;43.496;3.710;2023-09-30T10:15:16;7.32;;;3.75;;
71730;SDS011;65964;43.496;3.710;2023-09-30T10:20:28;7.72;;;3.63;;
71730;SDS011;65964;43.496;3.710;2023-09-30T10:25:39;6.70;;;3.20;;
71730;SDS011;65964;43.496;3.710;2023-09-30T10:36:42;10.40;;;3.40;;
71730;SDS011;65964;43.496;3.710;2023-09-30T10:39:12;7.70;;;3.70;;
71730;SDS011;65964;43.496;3.710;2023-09-30T10:46:51;8.38;;;3.42;;
71730;SDS011;65964;43.496;3.710;2023-09-30T10:51:50;7.07;;;3.20;;
71730;SDS011;65964;43.496;3.710;2023-09-30T10:54:23;6.22;;;3.10;;
71730;SDS011;65964;43.496;3.710;2023-09-30T10:56:49;7.60;;;3.20;;
71730;SDS011;65964;43.496;3.710;2023-09-30T10:59:19;7.32;;;3.40;;
71730;SDS011;65964;43.496;3.710;2023-09-30T11:01:45;6.20;;;3.08;;
71730;SDS011;65964;43.496;3.710;2023-09-30T11:04:11;6.85;;;3.58;;
71730;SDS011;65964;43.496;3.710;2023-09-30T11:06:41;8.27;;;3.10;;
71730;SDS011;65964;43.496;3.710;2023-09-30T11:09:07;7.90;;;3.10;;
71730;SDS011;65964;43.496;3.710;2023-09-30T11:11:40;6.13;;;2.90;;
71730;SDS011;65964;43.496;3.710;2023-09-30T11:14:28;5.05;;;2.75;;
71730;SDS011;65964;43.496;3.710;2023-09-30T11:16:56;7.13;;;3.00;;
71730;SDS011;65964;43.496;3.710;2023-09-30T11:19:22;7.80;;;2.80;;
71730;SDS011;65964;43.496;3.710;2023-09-30T11:21:49;4.28;;;2.35;;
71730;SDS011;65964;43.496;3.710;2023-09-30T11:24:16;5.45;;;2.50;;
71730;SDS011;65964;43.496;3.710;2023-09-30T11:26:46;5.53;;;2.42;;
71730;SDS011;65964;43.496;3.710;2023-09-30T11:31:42;9.65;;;5.28;;
71730;SDS011;65964;43.496;3.710;2023-09-30T11:34:08;5.82;;;3.00;;
71730;SDS011;65964;43.496;3.710;2023-09-30T11:36:38;5.80;;;3.00;;
71730;SDS011;65964;43.496;3.710;2023-09-30T11:39:07;5.47;;;2.45;;
71730;SDS011;65964;43.496;3.710;2023-09-30T11:41:37;5.82;;;2.42;;
71730;SDS011;65964;43.496;3.710;2023-09-30T11:44:05;5.93;;;2.70;;
71730;SDS011;65964;43.496;3.710;2023-09-30T11:46:32;5.95;;;2.78;;
71730;SDS011;65964;43.496;3.710;2023-09-30T11:49:02;4.88;;;2.28;;
71730;SDS011;65964;43.496;3.710;2023-09-30T11:51:29;5.05;;;2.40;;
71730;SDS011;65964;43.496;3.710;2023-09-30T11:53:56;11.55;;;3.00;;
71730;SDS011;65964;43.496;3.710;2023-09-30T11:56:23;7.10;;;2.90;;
71730;SDS011;65964;43.496;3.710;2023-09-30T11:58:54;7.22;;;3.22;;
71730;SDS011;65964;43.496;3.710;2023-09-30T12:01:21;8.00;;;3.75;;
71730;SDS011;65964;43.496;3.710;2023-09-30T12:03:48;7.13;;;3.30;;
71730;SDS011;65964;43.496;3.710;2023-09-30T12:06:14;7.82;;;3.55;;
71730;SDS011;65964;43.496;3.710;2023-09-30T12:08:41;6.97;;;3.15;;
71730;SDS011;65964;43.496;3.710;2023-09-30T12:11:07;8.98;;;3.47;;
71730;SDS011;65964;43.496;3.710;2023-09-30T12:13:33;9.38;;;4.00;;
71730;SDS011;65964;43.496;3.710;2023-09-30T12:16:00;8.82;;;3.63;;
71730;SDS011;65964;43.496;3.710;2023-09-30T12:18:26;8.02;;;3.72;;
71730;SDS011;65964;43.496;3.710;2023-09-30T12:20:52;7.82;;;3.75;;
71730;SDS011;65964;43.496;3.710;2023-09-30T12:23:19;7.85;;;3.75;;
71730;SDS011;65964;43.496;3.710;2023-09-30T12:25:45;8.40;;;3.60;;
71730;SDS011;65964;43.496;3.710;2023-09-30T12:28:12;9.88;;;4.00;;
71730;SDS011;65964;43.496;3.710;2023-09-30T12:30:39;9.57;;;3.72;;
71730;SDS011;65964;43.496;3.710;2023-09-30T12:33:05;7.05;;;3.53;;
71730;SDS011;65964;43.496;3.710;2023-09-30T12:35:32;6.25;;;3.38;;
71730;SDS011;65964;43.496;3.710;2023-09-30T12:37:58;7.03;;;3.65;;
71730;SDS011;65964;43.496;3.710;2023-09-30T12:40:24;7.65;;;3.80;;
71730;SDS011;65964;43.496;3.710;2023-09-30T12:42:51;8.43;;;3.70;;
71730;SDS011;65964;43.496;3.710;2023-09-30T12:45:17;7.05;;;3.50;;
71730;SDS011;65964;43.496;3.710;2023-09-30T12:47:43;8.35;;;4.03;;
71730;SDS011;65964;43.496;3.710;2023-09-30T12:50:09;6.93;;;3.33;;
71730;SDS011;65964;43.496;3.710;2023-09-30T12:52:35;6.97;;;3.55;;
71730;SDS011;65964;43.496;3.710;2023-09-30T12:55:03;7.93;;;3.60;;
71730;SDS011;65964;43.496;3.710;2023-09-30T12:57:30;6.65;;;3.30;;
71730;SDS011;65964;43.496;3.710;2023-09-30T12:59:56;7.53;;;3.70;;
71730;SDS011;65964;43.496;3.710;2023-09-30T13:02:22;6.75;;;3.70;;
71730;SDS011;65964;43.496;3.710;2023-09-30T13:04:48;8.10;;;3.70;;
71730;SDS011;65964;43.496;3.710;2023-09-30T13:07:15;9.02;;;4.00;;
71730;SDS011;65964;43.496;3.710;2023-09-30T13:09:41;7.47;;;3.35;;
71730;SDS011;65964;43.496;3.710;2023-09-30T13:12:08;7.05;;;3.85;;
71730;SDS011;65964;43.496;3.710;2023-09-30T13:14:34;9.02;;;4.00;;
71730;SDS011;65964;43.496;3.710;2023-09-30T13:17:00;8.52;;;3.85;;
71730;SDS011;65964;43.496;3.710;2023-09-30T13:19:26;8.55;;;3.53;;
71730;SDS011;65964;43.496;3.710;2023-09-30T13:21:52;9.60;;;3.90;;
71730;SDS011;65964;43.496;3.710;2023-09-30T13:24:19;8.40;;;3.40;;
71730;SDS011;65964;43.496;3.710;2023-09-30T13:26:45;9.15;;;3.97;;
71730;SDS011;65964;43.496;3.710;2023-09-30T13:29:11;8.07;;;3.60;;
71730;SDS011;65964;43.496;3.710;2023-09-30T13:31:38;9.93;;;3.75;;
71730;SDS011;65964;43.496;3.710;2023-09-30T13:34:05;8.25;;;3.60;;
71730;SDS011;65964;43.496;3.710;2023-09-30T13:36:31;8.02;;;3.75;;
71730;SDS011;65964;43.496;3.710;2023-09-30T13:38:57;9.88;;;4.20;;
71730;SDS011;65964;43.496;3.710;2023-09-30T13:41:23;9.38;;;4.05;;
71730;SDS011;65964;43.496;3.710;2023-09-30T13:43:49;8.10;;;4.00;;
71730;SDS011;65964;43.496;3.710;2023-09-30T13:46:15;10.60;;;4.95;;
71730;SDS011;65964;43.496;3.710;2023-09-30T13:48:42;7.80;;;4.20;;
71730;SDS011;65964;43.496;3.710;2023-09-30T13:51:08;10.65;;;4.10;;
71730;SDS011;65964;43.496;3.710;2023-09-30T13:53:36;7.35;;;3.60;;
71730;SDS011;65964;43.496;3.710;2023-09-30T13:56:02;8.02;;;3.35;;
71730;SDS011;65964;43.496;3.710;2023-09-30T13:58:28;7.10;;;3.58;;
71730;SDS011;65964;43.496;3.710;2023-09-30T14:00:54;9.77;;;3.47;;
71730;SDS011;65964;43.496;3.710;2023-09-30T14:03:23;7.82;;;3.85;;
71730;SDS011;65964;43.496;3.710;2023-09-30T14:05:50;7.97;;;3.65;;
71730;SDS011;65964;43.496;3.710;2023-09-30T14:08:16;8.95;;;4.03;;
71730;SDS011;65964;43.496;3.710;2023-09-30T14:10:42;10.48;;;4.50;;
71730;SDS011;65964;43.496;3.710;2023-09-30T14:13:11;7.10;;;3.17;;
71730;SDS011;65964;43.496;3.710;2023-09-30T14:15:37;8.15;;;3.42;;
71730;SDS011;65964;43.496;3.710;2023-09-30T14:18:03;9.30;;;3.75;;
71730;SDS011;65964;43.496;3.710;2023-09-30T14:20:29;6.07;;;3.22;;
71730;SDS011;65964;43.496;3.710;2023-09-30T14:22:55;8.48;;;4.00;;
71730;SDS011;65964;43.496;3.710;2023-09-30T14:25:21;8.43;;;4.13;;
71730;SDS011;65964;43.496;3.710;2023-09-30T14:27:48;8.60;;;3.45;;
71730;SDS011;65964;43.496;3.710;2023-09-30T14:30:14;8.05;;;3.58;;
71730;SDS011;65964;43.496;3.710;2023-09-30T14:32:41;7.10;;;3.53;;
71730;SDS011;65964;43.496;3.710;2023-09-30T14:35:07;8.20;;;3.58;;
71730;SDS011;65964;43.496;3.710;2023-09-30T14:37:34;7.70;;;3.30;;
71730;SDS011;65964;43.496;3.710;2023-09-30T14:40:01;7.38;;;3.45;;
71730;SDS011;65964;43.496;3.710;2023-09-30T14:42:30;9.38;;;3.97;;
71730;SDS011;65964;43.496;3.710;2023-09-30T14:44:56;8.73;;;3.90;;
71730;SDS011;65964;43.496;3.710;2023-09-30T14:47:22;8.07;;;3.40;;
71730;SDS011;65964;43.496;3.710;2023-09-30T14:49:48;7.65;;;3.10;;
71730;SDS011;65964;43.496;3.710;2023-09-30T14:52:14;6.60;;;3.42;;
71730;SDS011;65964;43.496;3.710;2023-09-30T14:54:41;9.00;;;3.45;;
71730;SDS011;65964;43.496;3.710;2023-09-30T14:57:07;7.93;;;3.83;;
71730;SDS011;65964;43.496;3.710;2023-09-30T14:59:34;7.22;;;3.22;;
71730;SDS011;65964;43.496;3.710;2023-09-30T15:02:00;7.88;;;3.58;;
71730;SDS011;65964;43.496;3.710;2023-09-30T15:04:27;8.85;;;3.70;;
71730;SDS011;65964;43.496;3.710;2023-09-30T15:06:53;7.35;;;3.63;;
71730;SDS011;65964;43.496;3.710;2023-09-30T15:09:19;8.65;;;3.60;;
71730;SDS011;65964;43.496;3.710;2023-09-30T15:11:45;9.13;;;3.97;;